sensor_id;sensor_type;location;lat;lon;timestamp;pressure;altitude;pressure_sealevel;temperature;humidity
74466;BME280;62916;50.044;15.938;2023-02-14T00:00:45;101033.37;;;23.14;43.57
74466;BME280;62916;50.044;15.938;2023-02-14T00:03:15;101038.42;;;23.11;43.55
74466;BME280;62916;50.044;15.938;2023-02-14T00:05:46;101033.85;;;23.08;43.52
74466;BME280;62916;50.044;15.938;2023-02-14T00:08:17;101026.67;;;23.07;43.36
74466;BME280;62916;50.044;15.938;2023-02-14T00:10:48;101020.58;;;23.02;43.56
74466;BME280;62916;50.044;15.938;2023-02-14T00:13:19;101023.41;;;23.04;43.52
74466;BME280;62916;50.044;15.938;2023-02-14T00:15:49;101024.64;;;23.06;43.47
74466;BME280;62916;50.044;15.938;2023-02-14T00:18:20;101018.93;;;23.06;43.51
74466;BME280;62916;50.044;15.938;2023-02-14T00:20:51;101024.81;;;23.08;43.30
74466;BME280;62916;50.044;15.938;2023-02-14T00:23:21;101021.70;;;23.06;43.40
74466;BME280;62916;50.044;15.938;2023-02-14T00:25:52;101024.88;;;23.02;43.39
74466;BME280;62916;50.044;15.938;2023-02-14T00:28:23;101025.78;;;23.02;43.33
74466;BME280;62916;50.044;15.938;2023-02-14T00:30:53;101028.34;;;23.02;43.48
74466;BME280;62916;50.044;15.938;2023-02-14T00:33:26;101027.77;;;23.02;43.33
74466;BME280;62916;50.044;15.938;2023-02-14T00:35:57;101033.23;;;22.98;43.21
74466;BME280;62916;50.044;15.938;2023-02-14T00:38:31;101041.96;;;22.96;43.41
74466;BME280;62916;50.044;15.938;2023-02-14T00:41:02;101041.17;;;22.93;43.41
74466;BME280;62916;50.044;15.938;2023-02-14T00:43:33;101043.66;;;22.93;43.50
74466;BME280;62916;50.044;15.938;2023-02-14T00:46:04;101041.17;;;22.92;43.38
74466;BME280;62916;50.044;15.938;2023-02-14T00:48:34;101040.85;;;22.90;43.39
74466;BME280;62916;50.044;15.938;2023-02-14T00:51:06;101039.34;;;22.86;43.43
74466;BME280;62916;50.044;15.938;2023-02-14T00:53:37;101036.47;;;22.85;43.45
74466;BME280;62916;50.044;15.938;2023-02-14T00:56:08;101037.37;;;22.84;43.34
74466;BME280;62916;50.044;15.938;2023-02-14T00:58:39;101035.69;;;22.83;43.46
74466;BME280;62916;50.044;15.938;2023-02-14T01:01:10;101030.08;;;22.82;43.51
74466;BME280;62916;50.044;15.938;2023-02-14T01:03:41;101029.56;;;22.83;43.27
74466;BME280;62916;50.044;15.938;2023-02-14T01:06:12;101026.96;;;22.84;43.42
74466;BME280;62916;50.044;15.938;2023-02-14T01:08:43;101030.41;;;22.82;43.30
74466;BME280;62916;50.044;15.938;2023-02-14T01:11:16;101032.34;;;22.82;43.27
74466;BME280;62916;50.044;15.938;2023-02-14T01:13:48;101035.61;;;22.77;43.29
74466;BME280;62916;50.044;15.938;2023-02-14T01:16:20;101037.39;;;22.74;43.28
74466;BME280;62916;50.044;15.938;2023-02-14T01:18:52;101039.02;;;22.71;43.37
74466;BME280;62916;50.044;15.938;2023-02-14T01:21:25;101038.92;;;22.70;43.30
74466;BME280;62916;50.044;15.938;2023-02-14T01:23:57;101040.52;;;22.69;43.28
74466;BME280;62916;50.044;15.938;2023-02-14T01:26:29;101039.27;;;22.68;43.32
74466;BME280;62916;50.044;15.938;2023-02-14T01:29:00;101038.55;;;22.65;43.28
74466;BME280;62916;50.044;15.938;2023-02-14T01:31:32;101034.48;;;22.64;43.42
74466;BME280;62916;50.044;15.938;2023-02-14T01:34:03;101030.02;;;22.59;43.41
74466;BME280;62916;50.044;15.938;2023-02-14T01:36:37;101026.48;;;22.57;43.29
74466;BME280;62916;50.044;15.938;2023-02-14T01:39:09;101027.96;;;22.57;43.27
74466;BME280;62916;50.044;15.938;2023-02-14T01:41:43;101024.50;;;22.55;43.48
74466;BME280;62916;50.044;15.938;2023-02-14T01:47:18;101025.58;;;22.54;43.50
74466;BME280;62916;50.044;15.938;2023-02-14T01:49:50;101025.23;;;22.53;43.40
74466;BME280;62916;50.044;15.938;2023-02-14T01:52:24;101024.67;;;22.52;43.27
74466;BME280;62916;50.044;15.938;2023-02-14T01:54:59;101021.25;;;22.49;43.56
74466;BME280;62916;50.044;15.938;2023-02-14T01:57:30;101018.81;;;22.49;43.43
74466;BME280;62916;50.044;15.938;2023-02-14T02:00:07;101014.48;;;22.47;43.60
74466;BME280;62916;50.044;15.938;2023-02-14T02:02:56;101012.33;;;22.47;43.47
74466;BME280;62916;50.044;15.938;2023-02-14T02:05:28;101013.73;;;22.44;43.49
74466;BME280;62916;50.044;15.938;2023-02-14T02:08:00;101014.65;;;22.42;43.64
74466;BME280;62916;50.044;15.938;2023-02-14T02:10:31;101014.77;;;22.43;43.59
74466;BME280;62916;50.044;15.938;2023-02-14T02:13:04;101010.17;;;22.42;43.50
74466;BME280;62916;50.044;15.938;2023-02-14T02:15:41;101008.67;;;22.40;43.48
74466;BME280;62916;50.044;15.938;2023-02-14T02:18:21;101003.02;;;22.39;43.55
74466;BME280;62916;50.044;15.938;2023-02-14T02:24:23;100992.52;;;22.36;43.66
74466;BME280;62916;50.044;15.938;2023-02-14T02:27:20;100993.08;;;22.35;43.58
74466;BME280;62916;50.044;15.938;2023-02-14T02:39:40;100977.52;;;22.31;43.63
74466;BME280;62916;50.044;15.938;2023-02-14T02:42:23;100975.29;;;22.29;43.62
74466;BME280;62916;50.044;15.938;2023-02-14T02:45:08;100977.17;;;22.27;43.58
74466;BME280;62916;50.044;15.938;2023-02-14T02:47:45;100978.02;;;22.26;43.69
74466;BME280;62916;50.044;15.938;2023-02-14T02:50:24;100979.09;;;22.25;43.64
74466;BME280;62916;50.044;15.938;2023-02-14T02:53:20;100974.96;;;22.23;43.67
74466;BME280;62916;50.044;15.938;2023-02-14T02:55:56;100976.05;;;22.20;43.57
74466;BME280;62916;50.044;15.938;2023-02-14T02:58:47;100975.04;;;22.18;43.57
74466;BME280;62916;50.044;15.938;2023-02-14T03:01:22;100977.92;;;22.18;43.55
74466;BME280;62916;50.044;15.938;2023-02-14T03:03:57;100977.54;;;22.17;43.82
74466;BME280;62916;50.044;15.938;2023-02-14T03:06:47;100978.04;;;22.12;43.78
74466;BME280;62916;50.044;15.938;2023-02-14T03:09:50;100969.85;;;22.11;43.76
74466;BME280;62916;50.044;15.938;2023-02-14T03:12:37;100974.88;;;22.14;43.83
74466;BME280;62916;50.044;15.938;2023-02-14T03:15:14;100971.60;;;22.18;43.61
74466;BME280;62916;50.044;15.938;2023-02-14T03:17:58;100970.66;;;22.22;43.44
74466;BME280;62916;50.044;15.938;2023-02-14T03:20:40;100971.91;;;22.27;43.57
74466;BME280;62916;50.044;15.938;2023-02-14T03:23:19;100975.66;;;22.30;43.67
74466;BME280;62916;50.044;15.938;2023-02-14T03:25:58;100971.48;;;22.33;43.74
74466;BME280;62916;50.044;15.938;2023-02-14T03:28:36;100971.25;;;22.37;43.64
74466;BME280;62916;50.044;15.938;2023-02-14T03:31:16;100971.22;;;22.42;43.69
74466;BME280;62916;50.044;15.938;2023-02-14T03:33:52;100970.65;;;22.45;43.69
74466;BME280;62916;50.044;15.938;2023-02-14T03:36:28;100971.33;;;22.48;43.54
74466;BME280;62916;50.044;15.938;2023-02-14T03:39:04;100971.85;;;22.52;43.45
74466;BME280;62916;50.044;15.938;2023-02-14T03:41:40;100973.55;;;22.55;43.58
74466;BME280;62916;50.044;15.938;2023-02-14T03:44:12;100976.94;;;22.58;43.51
74466;BME280;62916;50.044;15.938;2023-02-14T03:46:50;100978.10;;;22.60;43.43
74466;BME280;62916;50.044;15.938;2023-02-14T03:49:25;100975.78;;;22.59;43.45
74466;BME280;62916;50.044;15.938;2023-02-14T03:52:01;100981.70;;;22.67;43.65
74466;BME280;62916;50.044;15.938;2023-02-14T03:54:33;100977.62;;;22.69;43.49
74466;BME280;62916;50.044;15.938;2023-02-14T03:57:10;100981.83;;;22.72;43.44
74466;BME280;62916;50.044;15.938;2023-02-14T03:59:43;100971.77;;;22.74;43.53
74466;BME280;62916;50.044;15.938;2023-02-14T04:02:16;100977.10;;;22.78;43.47
74466;BME280;62916;50.044;15.938;2023-02-14T04:04:50;100977.23;;;22.81;43.42
74466;BME280;62916;50.044;15.938;2023-02-14T04:07:24;100978.19;;;22.84;43.54
74466;BME280;62916;50.044;15.938;2023-02-14T04:09:54;100975.74;;;22.87;43.33
74466;BME280;62916;50.044;15.938;2023-02-14T04:12:26;100976.73;;;22.90;43.35
74466;BME280;62916;50.044;15.938;2023-02-14T04:15:07;100979.20;;;22.93;43.53
74466;BME280;62916;50.044;15.938;2023-02-14T04:17:39;100970.37;;;22.95;43.48
74466;BME280;62916;50.044;15.938;2023-02-14T04:20:29;100966.12;;;22.99;43.40
74466;BME280;62916;50.044;15.938;2023-02-14T04:23:00;100959.54;;;22.97;43.33
74466;BME280;62916;50.044;15.938;2023-02-14T04:25:32;100965.95;;;23.03;43.34
74466;BME280;62916;50.044;15.938;2023-02-14T04:28:02;100963.85;;;23.05;43.50
74466;BME280;62916;50.044;15.938;2023-02-14T04:30:34;100957.52;;;23.06;43.45
74466;BME280;62916;50.044;15.938;2023-02-14T04:33:05;100958.80;;;23.08;43.33
74466;BME280;62916;50.044;15.938;2023-02-14T04:35:37;100963.07;;;23.11;43.45
74466;BME280;62916;50.044;15.938;2023-02-14T04:38:08;100956.97;;;23.09;43.34
74466;BME280;62916;50.044;15.938;2023-02-14T04:40:38;100965.84;;;23.13;43.26
74466;BME280;62916;50.044;15.938;2023-02-14T04:43:09;100964.81;;;23.15;43.17
74466;BME280;62916;50.044;15.938;2023-02-14T04:45:40;100962.20;;;23.16;43.35
74466;BME280;62916;50.044;15.938;2023-02-14T04:48:11;100958.11;;;23.17;43.26
74466;BME280;62916;50.044;15.938;2023-02-14T04:50:42;100956.52;;;23.19;43.28
74466;BME280;62916;50.044;15.938;2023-02-14T04:53:12;100958.27;;;23.19;43.31
74466;BME280;62916;50.044;15.938;2023-02-14T04:55:43;100958.36;;;23.21;43.29
74466;BME280;62916;50.044;15.938;2023-02-14T04:58:14;100965.42;;;23.23;43.09
74466;BME280;62916;50.044;15.938;2023-02-14T05:00:45;100968.08;;;23.22;43.19
74466;BME280;62916;50.044;15.938;2023-02-14T05:03:16;100965.20;;;23.22;43.42
74466;BME280;62916;50.044;15.938;2023-02-14T05:05:47;100960.73;;;23.22;43.29
74466;BME280;62916;50.044;15.938;2023-02-14T05:08:18;100961.45;;;23.27;43.30
74466;BME280;62916;50.044;15.938;2023-02-14T05:10:48;100963.08;;;23.29;43.29
74466;BME280;62916;50.044;15.938;2023-02-14T05:13:19;100962.77;;;23.30;43.32
74466;BME280;62916;50.044;15.938;2023-02-14T05:15:50;100963.66;;;23.31;43.34
74466;BME280;62916;50.044;15.938;2023-02-14T05:18:20;100963.65;;;23.32;43.36
74466;BME280;62916;50.044;15.938;2023-02-14T05:20:52;100968.00;;;23.34;43.31
74466;BME280;62916;50.044;15.938;2023-02-14T05:23:24;100962.96;;;23.34;43.28
74466;BME280;62916;50.044;15.938;2023-02-14T05:25:54;100964.20;;;23.35;43.39
74466;BME280;62916;50.044;15.938;2023-02-14T05:28:25;100969.23;;;23.37;43.37
74466;BME280;62916;50.044;15.938;2023-02-14T05:30:56;100974.21;;;23.38;43.43
74466;BME280;62916;50.044;15.938;2023-02-14T05:33:28;100972.73;;;23.39;43.47
74466;BME280;62916;50.044;15.938;2023-02-14T05:36:00;100981.94;;;23.41;43.33
74466;BME280;62916;50.044;15.938;2023-02-14T05:38:31;100979.48;;;23.42;43.32
74466;BME280;62916;50.044;15.938;2023-02-14T05:41:03;100984.75;;;23.43;43.43
74466;BME280;62916;50.044;15.938;2023-02-14T05:43:34;100990.05;;;23.46;43.58
74466;BME280;62916;50.044;15.938;2023-02-14T05:46:05;100984.15;;;23.48;43.53
74466;BME280;62916;50.044;15.938;2023-02-14T05:48:36;100982.81;;;23.50;43.45
74466;BME280;62916;50.044;15.938;2023-02-14T05:51:09;100985.13;;;23.51;43.46
74466;BME280;62916;50.044;15.938;2023-02-14T05:53:40;100982.66;;;23.52;43.42
74466;BME280;62916;50.044;15.938;2023-02-14T05:56:10;100982.15;;;23.54;43.39
74466;BME280;62916;50.044;15.938;2023-02-14T05:58:41;100984.86;;;23.56;43.39
74466;BME280;62916;50.044;15.938;2023-02-14T06:01:13;100991.41;;;23.58;43.29
74466;BME280;62916;50.044;15.938;2023-02-14T06:03:43;100991.35;;;23.59;43.35
74466;BME280;62916;50.044;15.938;2023-02-14T06:06:14;100997.56;;;23.61;43.24
74466;BME280;62916;50.044;15.938;2023-02-14T06:08:45;101001.16;;;23.62;43.35
74466;BME280;62916;50.044;15.938;2023-02-14T06:11:16;101001.16;;;23.63;43.21
74466;BME280;62916;50.044;15.938;2023-02-14T06:13:47;101003.27;;;23.60;43.32
74466;BME280;62916;50.044;15.938;2023-02-14T06:16:18;101011.64;;;23.63;43.25
74466;BME280;62916;50.044;15.938;2023-02-14T06:18:48;101003.52;;;23.65;43.30
74466;BME280;62916;50.044;15.938;2023-02-14T06:21:19;101009.48;;;23.66;43.38
74466;BME280;62916;50.044;15.938;2023-02-14T06:23:50;101010.94;;;23.67;43.37
74466;BME280;62916;50.044;15.938;2023-02-14T06:26:21;101015.64;;;23.68;43.35
74466;BME280;62916;50.044;15.938;2023-02-14T06:28:57;101016.14;;;23.68;43.33
74466;BME280;62916;50.044;15.938;2023-02-14T06:31:28;101015.69;;;23.69;43.30
74466;BME280;62916;50.044;15.938;2023-02-14T06:33:59;101015.63;;;23.69;43.33
74466;BME280;62916;50.044;15.938;2023-02-14T06:36:30;101020.27;;;23.71;43.27
74466;BME280;62916;50.044;15.938;2023-02-14T06:39:01;101025.74;;;23.72;43.24
74466;BME280;62916;50.044;15.938;2023-02-14T06:41:32;101024.44;;;23.71;43.19
74466;BME280;62916;50.044;15.938;2023-02-14T06:44:03;101027.45;;;23.71;43.21
74466;BME280;62916;50.044;15.938;2023-02-14T06:46:34;101023.70;;;23.71;43.18
74466;BME280;62916;50.044;15.938;2023-02-14T06:49:05;101022.42;;;23.70;43.12
74466;BME280;62916;50.044;15.938;2023-02-14T06:51:35;101023.21;;;23.70;43.12
74466;BME280;62916;50.044;15.938;2023-02-14T06:54:06;101025.48;;;23.70;43.13
74466;BME280;62916;50.044;15.938;2023-02-14T06:56:37;101022.83;;;23.69;43.18
74466;BME280;62916;50.044;15.938;2023-02-14T06:59:08;101023.34;;;23.67;43.11
74466;BME280;62916;50.044;15.938;2023-02-14T07:01:39;101028.23;;;23.66;43.12
74466;BME280;62916;50.044;15.938;2023-02-14T07:04:10;101031.86;;;23.64;43.12
74466;BME280;62916;50.044;15.938;2023-02-14T07:06:42;101024.62;;;23.63;43.16
74466;BME280;62916;50.044;15.938;2023-02-14T07:09:13;101025.73;;;23.61;43.26
74466;BME280;62916;50.044;15.938;2023-02-14T07:11:46;101034.80;;;23.60;43.22
74466;BME280;62916;50.044;15.938;2023-02-14T07:14:17;101038.20;;;23.60;43.21
74466;BME280;62916;50.044;15.938;2023-02-14T07:16:48;101034.92;;;23.58;43.28
74466;BME280;62916;50.044;15.938;2023-02-14T07:19:18;101035.27;;;23.58;43.29
74466;BME280;62916;50.044;15.938;2023-02-14T07:21:49;101035.95;;;23.57;43.37
74466;BME280;62916;50.044;15.938;2023-02-14T07:24:20;101034.14;;;23.56;43.17
74466;BME280;62916;50.044;15.938;2023-02-14T07:26:50;101028.82;;;23.54;43.24
74466;BME280;62916;50.044;15.938;2023-02-14T07:29:21;101033.25;;;23.52;43.22
74466;BME280;62916;50.044;15.938;2023-02-14T07:31:52;101032.30;;;23.51;43.27
74466;BME280;62916;50.044;15.938;2023-02-14T07:34:24;101032.02;;;23.50;43.24
74466;BME280;62916;50.044;15.938;2023-02-14T07:36:55;101028.63;;;23.48;43.23
74466;BME280;62916;50.044;15.938;2023-02-14T07:39:26;101032.36;;;23.47;43.32
74466;BME280;62916;50.044;15.938;2023-02-14T07:41:57;101028.69;;;23.45;43.41
74466;BME280;62916;50.044;15.938;2023-02-14T07:44:28;101028.52;;;23.45;43.32
74466;BME280;62916;50.044;15.938;2023-02-14T07:46:58;101028.35;;;23.44;43.31
74466;BME280;62916;50.044;15.938;2023-02-14T07:49:29;101025.92;;;23.43;43.20
74466;BME280;62916;50.044;15.938;2023-02-14T07:52:02;101028.35;;;23.44;43.17
74466;BME280;62916;50.044;15.938;2023-02-14T07:54:33;101028.92;;;23.44;43.09
74466;BME280;62916;50.044;15.938;2023-02-14T07:57:04;101030.34;;;23.44;43.12
74466;BME280;62916;50.044;15.938;2023-02-14T07:59:35;101035.00;;;23.42;43.15
74466;BME280;62916;50.044;15.938;2023-02-14T08:02:06;101032.53;;;23.40;43.11
74466;BME280;62916;50.044;15.938;2023-02-14T08:04:36;101032.20;;;23.38;43.06
74466;BME280;62916;50.044;15.938;2023-02-14T08:07:07;101035.73;;;23.36;43.17
74466;BME280;62916;50.044;15.938;2023-02-14T08:09:38;101034.88;;;23.35;43.17
74466;BME280;62916;50.044;15.938;2023-02-14T08:12:10;101041.02;;;23.31;43.26
74466;BME280;62916;50.044;15.938;2023-02-14T08:14:58;101039.84;;;23.30;43.29
74466;BME280;62916;50.044;15.938;2023-02-14T08:17:49;101042.86;;;23.28;43.18
74466;BME280;62916;50.044;15.938;2023-02-14T08:20:20;101041.39;;;23.27;43.09
74466;BME280;62916;50.044;15.938;2023-02-14T08:22:51;101039.75;;;23.25;43.28
74466;BME280;62916;50.044;15.938;2023-02-14T08:25:22;101039.88;;;23.23;43.32
74466;BME280;62916;50.044;15.938;2023-02-14T08:27:53;101035.52;;;23.23;43.44
74466;BME280;62916;50.044;15.938;2023-02-14T08:30:25;101040.50;;;23.24;43.40
74466;BME280;62916;50.044;15.938;2023-02-14T08:32:56;101041.25;;;23.22;43.48
74466;BME280;62916;50.044;15.938;2023-02-14T08:35:26;101042.74;;;23.19;43.44
74466;BME280;62916;50.044;15.938;2023-02-14T08:37:57;101046.10;;;23.16;43.38
74466;BME280;62916;50.044;15.938;2023-02-14T08:40:28;101050.57;;;23.13;43.44
74466;BME280;62916;50.044;15.938;2023-02-14T08:42:59;101051.84;;;23.11;43.35
74466;BME280;62916;50.044;15.938;2023-02-14T08:45:30;101049.98;;;23.09;43.50
74466;BME280;62916;50.044;15.938;2023-02-14T08:48:06;101043.48;;;23.08;43.43
74466;BME280;62916;50.044;15.938;2023-02-14T08:50:38;101047.91;;;23.04;43.45
74466;BME280;62916;50.044;15.938;2023-02-14T08:53:11;101048.36;;;23.04;43.45
74466;BME280;62916;50.044;15.938;2023-02-14T08:55:41;101052.33;;;23.03;43.48
74466;BME280;62916;50.044;15.938;2023-02-14T08:58:12;101045.09;;;23.00;43.44
74466;BME280;62916;50.044;15.938;2023-02-14T09:00:43;101045.60;;;23.01;43.43
74466;BME280;62916;50.044;15.938;2023-02-14T09:03:14;101046.48;;;22.99;43.29
74466;BME280;62916;50.044;15.938;2023-02-14T09:05:45;101046.77;;;22.97;43.30
74466;BME280;62916;50.044;15.938;2023-02-14T09:08:15;101051.02;;;22.95;43.35
74466;BME280;62916;50.044;15.938;2023-02-14T09:10:46;101048.19;;;22.96;43.26
74466;BME280;62916;50.044;15.938;2023-02-14T09:13:17;101045.47;;;22.96;43.32
74466;BME280;62916;50.044;15.938;2023-02-14T09:15:47;101048.14;;;22.95;43.39
74466;BME280;62916;50.044;15.938;2023-02-14T09:18:18;101051.27;;;22.91;43.35
74466;BME280;62916;50.044;15.938;2023-02-14T09:20:49;101043.25;;;22.85;43.62
74466;BME280;62916;50.044;15.938;2023-02-14T09:23:20;101049.77;;;22.82;43.64
74466;BME280;62916;50.044;15.938;2023-02-14T09:25:51;101048.30;;;22.81;43.70
74466;BME280;62916;50.044;15.938;2023-02-14T09:28:22;101050.52;;;22.79;43.62
74466;BME280;62916;50.044;15.938;2023-02-14T09:30:52;101050.70;;;22.76;43.80
74466;BME280;62916;50.044;15.938;2023-02-14T09:33:23;101048.44;;;22.74;43.90
74466;BME280;62916;50.044;15.938;2023-02-14T09:35:57;101049.66;;;22.72;43.97
74466;BME280;62916;50.044;15.938;2023-02-14T09:38:40;101045.09;;;22.71;43.87
74466;BME280;62916;50.044;15.938;2023-02-14T09:41:37;101047.88;;;22.68;44.15
74466;BME280;62916;50.044;15.938;2023-02-14T09:44:25;101050.61;;;22.62;44.17
74466;BME280;62916;50.044;15.938;2023-02-14T09:47:05;101053.44;;;22.65;44.21
74466;BME280;62916;50.044;15.938;2023-02-14T09:49:39;101053.73;;;22.70;44.21
74466;BME280;62916;50.044;15.938;2023-02-14T09:52:13;101056.36;;;22.75;44.14
74466;BME280;62916;50.044;15.938;2023-02-14T09:54:50;101062.88;;;22.78;44.08
74466;BME280;62916;50.044;15.938;2023-02-14T09:57:26;101054.35;;;22.82;44.19
74466;BME280;62916;50.044;15.938;2023-02-14T10:00:05;101047.89;;;22.88;44.14
74466;BME280;62916;50.044;15.938;2023-02-14T10:02:55;101048.02;;;22.95;44.01
74466;BME280;62916;50.044;15.938;2023-02-14T10:05:30;101044.54;;;22.99;44.01
74466;BME280;62916;50.044;15.938;2023-02-14T10:08:10;101052.01;;;23.10;43.89
74466;BME280;62916;50.044;15.938;2023-02-14T10:10:48;101048.41;;;23.18;43.81
74466;BME280;62916;50.044;15.938;2023-02-14T10:13:30;101044.91;;;23.24;43.79
74466;BME280;62916;50.044;15.938;2023-02-14T10:16:07;101051.18;;;23.30;43.74
74466;BME280;62916;50.044;15.938;2023-02-14T10:18:41;101049.32;;;23.35;43.69
74466;BME280;62916;50.044;15.938;2023-02-14T10:21:18;101041.66;;;23.40;43.66
74466;BME280;62916;50.044;15.938;2023-02-14T10:23:55;101044.71;;;23.46;43.75
74466;BME280;62916;50.044;15.938;2023-02-14T10:26:32;101045.42;;;23.54;43.52
74466;BME280;62916;50.044;15.938;2023-02-14T10:29:06;101044.20;;;23.60;43.45
74466;BME280;62916;50.044;15.938;2023-02-14T10:31:43;101045.73;;;23.67;43.42
74466;BME280;62916;50.044;15.938;2023-02-14T10:34:23;101045.42;;;23.75;43.31
74466;BME280;62916;50.044;15.938;2023-02-14T10:37:07;101044.85;;;23.83;43.39
74466;BME280;62916;50.044;15.938;2023-02-14T10:40:01;101041.34;;;23.91;43.21
74466;BME280;62916;50.044;15.938;2023-02-14T10:42:43;101042.02;;;23.95;42.99
74466;BME280;62916;50.044;15.938;2023-02-14T10:45:25;101040.19;;;23.98;42.97
74466;BME280;62916;50.044;15.938;2023-02-14T10:48:07;101039.16;;;24.03;42.94
74466;BME280;62916;50.044;15.938;2023-02-14T10:50:51;101039.98;;;24.08;43.17
74466;BME280;62916;50.044;15.938;2023-02-14T10:53:31;101037.64;;;24.13;42.99
74466;BME280;62916;50.044;15.938;2023-02-14T10:56:05;101039.83;;;24.17;42.82
74466;BME280;62916;50.044;15.938;2023-02-14T10:58:39;101040.11;;;24.21;42.92
74466;BME280;62916;50.044;15.938;2023-02-14T11:01:12;101040.34;;;24.26;42.83
74466;BME280;62916;50.044;15.938;2023-02-14T11:03:52;101039.35;;;24.29;42.74
74466;BME280;62916;50.044;15.938;2023-02-14T11:06:24;101041.60;;;24.31;42.83
74466;BME280;62916;50.044;15.938;2023-02-14T11:08:56;101040.30;;;24.33;42.80
74466;BME280;62916;50.044;15.938;2023-02-14T11:11:29;101028.95;;;24.35;42.68
74466;BME280;62916;50.044;15.938;2023-02-14T11:14:19;101027.61;;;24.34;42.84
74466;BME280;62916;50.044;15.938;2023-02-14T11:16:51;101028.82;;;24.32;43.03
74466;BME280;62916;50.044;15.938;2023-02-14T11:19:25;101028.16;;;24.31;42.88
74466;BME280;62916;50.044;15.938;2023-02-14T11:21:55;101028.16;;;24.31;43.10
74466;BME280;62916;50.044;15.938;2023-02-14T11:24:31;101020.50;;;24.35;42.68
74466;BME280;62916;50.044;15.938;2023-02-14T11:27:05;101017.85;;;24.34;42.58
74466;BME280;62916;50.044;15.938;2023-02-14T11:29:43;101009.30;;;24.27;42.47
74466;BME280;62916;50.044;15.938;2023-02-14T11:32:20;101010.34;;;24.24;42.53
74466;BME280;62916;50.044;15.938;2023-02-14T11:34:54;101008.89;;;24.04;42.80
74466;BME280;62916;50.044;15.938;2023-02-14T11:37:30;101012.34;;;23.81;43.30
74466;BME280;62916;50.044;15.938;2023-02-14T11:43:39;101010.55;;;23.32;45.42
74466;BME280;62916;50.044;15.938;2023-02-14T11:46:26;101012.38;;;23.10;44.10
74466;BME280;62916;50.044;15.938;2023-02-14T11:49:02;101013.90;;;22.81;44.42
74466;BME280;62916;50.044;15.938;2023-02-14T11:51:36;101010.29;;;22.60;44.93
74466;BME280;62916;50.044;15.938;2023-02-14T11:54:21;101000.73;;;22.44;45.23
74466;BME280;62916;50.044;15.938;2023-02-14T11:56:55;100997.83;;;22.34;45.89
74466;BME280;62916;50.044;15.938;2023-02-14T11:59:32;100993.81;;;22.34;46.11
74466;BME280;62916;50.044;15.938;2023-02-14T12:02:17;100994.16;;;22.34;46.28
74466;BME280;62916;50.044;15.938;2023-02-14T12:04:53;100991.21;;;22.33;46.38
74466;BME280;62916;50.044;15.938;2023-02-14T12:07:28;100992.68;;;22.34;46.44
74466;BME280;62916;50.044;15.938;2023-02-14T12:10:17;100988.45;;;22.34;46.44
74466;BME280;62916;50.044;15.938;2023-02-14T12:12:54;100983.06;;;22.33;46.43
74466;BME280;62916;50.044;15.938;2023-02-14T12:15:31;100981.90;;;22.30;46.09
74466;BME280;62916;50.044;15.938;2023-02-14T12:18:31;100981.17;;;22.27;45.79
74466;BME280;62916;50.044;15.938;2023-02-14T12:21:16;100975.92;;;22.24;45.83
74466;BME280;62916;50.044;15.938;2023-02-14T12:23:58;100977.46;;;22.20;45.82
74466;BME280;62916;50.044;15.938;2023-02-14T12:26:35;100976.24;;;22.16;45.99
74466;BME280;62916;50.044;15.938;2023-02-14T12:29:17;100970.70;;;22.14;46.06
74466;BME280;62916;50.044;15.938;2023-02-14T12:31:49;100972.84;;;22.12;46.00
74466;BME280;62916;50.044;15.938;2023-02-14T12:34:21;100970.81;;;22.11;46.06
74466;BME280;62916;50.044;15.938;2023-02-14T12:37:10;100966.08;;;22.09;46.28
74466;BME280;62916;50.044;15.938;2023-02-14T12:39:52;100965.08;;;22.09;46.27
74466;BME280;62916;50.044;15.938;2023-02-14T12:42:39;100964.56;;;22.07;46.12
74466;BME280;62916;50.044;15.938;2023-02-14T12:45:18;100963.88;;;22.07;46.28
74466;BME280;62916;50.044;15.938;2023-02-14T12:48:02;100923.91;;;21.77;46.33
74466;BME280;62916;50.044;15.938;2023-02-14T12:50:39;100958.63;;;22.04;46.85
74466;BME280;62916;50.044;15.938;2023-02-14T12:53:33;100965.96;;;22.09;46.99
74466;BME280;62916;50.044;15.938;2023-02-14T12:56:11;100962.67;;;22.09;47.01
74466;BME280;62916;50.044;15.938;2023-02-14T12:58:51;100952.90;;;22.05;47.02
74466;BME280;62916;50.044;15.938;2023-02-14T13:01:51;100960.02;;;22.09;47.07
74466;BME280;62916;50.044;15.938;2023-02-14T13:04:49;100958.80;;;22.09;47.29
74466;BME280;62916;50.044;15.938;2023-02-14T13:07:33;100953.96;;;22.10;47.36
74466;BME280;62916;50.044;15.938;2023-02-14T13:10:14;100951.37;;;22.11;47.22
74466;BME280;62916;50.044;15.938;2023-02-14T13:13:01;100951.88;;;22.12;47.39
74466;BME280;62916;50.044;15.938;2023-02-14T13:15:37;100954.24;;;22.14;47.34
74466;BME280;62916;50.044;15.938;2023-02-14T13:18:17;100950.80;;;22.15;47.29
74466;BME280;62916;50.044;15.938;2023-02-14T13:20:54;100932.69;;;22.05;47.24
74466;BME280;62916;50.044;15.938;2023-02-14T13:23:29;100949.16;;;22.17;47.35
74466;BME280;62916;50.044;15.938;2023-02-14T13:26:09;100949.55;;;22.18;47.16
74466;BME280;62916;50.044;15.938;2023-02-14T13:28:46;100945.98;;;22.20;47.18
74466;BME280;62916;50.044;15.938;2023-02-14T13:31:21;100947.71;;;22.21;47.18
74466;BME280;62916;50.044;15.938;2023-02-14T13:33:55;100944.94;;;22.24;46.66
74466;BME280;62916;50.044;15.938;2023-02-14T13:36:26;100945.11;;;22.27;46.96
74466;BME280;62916;50.044;15.938;2023-02-14T13:38:58;100944.40;;;22.31;47.06